Time;durP1;ratioP1;P1;durP2;ratioP2;P2;SDS_P1;SDS_P2;PMS_P1;PMS_P2;Temp;Humidity;BMP_temperature;BMP_pressure;BME280_temperature;BME280_humidity;BME280_pressure;Samples;Min_cycle;Max_cycle;Signal;HPM_P1;HPM_P2
2022/05/16 00:02:04;;;;;;;2.13;1.92;;;25.40;41.20;;;;;;5030839;28;20519;-68
2022/05/16 00:04:31;;;;;;;2.33;2.13;;;25.30;41.10;;;;;;5030060;28;20119;-68
2022/05/16 00:06:59;;;;;;;1.98;1.88;;;25.30;41.10;;;;;;5031413;28;20057;-68
2022/05/16 00:09:26;;;;;;;2.70;2.50;;;25.30;41.10;;;;;;5030897;28;20095;-68
2022/05/16 00:11:53;;;;;;;2.75;2.40;;;25.30;41.20;;;;;;5029380;28;20049;-67
2022/05/16 00:14:20;;;;;;;2.65;2.17;;;25.30;41.20;;;;;;5030723;28;20081;-68
2022/05/16 00:16:47;;;;;;;2.28;1.90;;;25.40;41.30;;;;;;5031086;28;20107;-68
2022/05/16 00:19:14;;;;;;;3.05;2.00;;;25.30;41.20;;;;;;5030888;28;20061;-68
2022/05/16 00:21:42;;;;;;;2.30;2.10;;;25.30;41.20;;;;;;5030514;28;20111;-68
2022/05/16 00:24:09;;;;;;;2.28;2.08;;;25.30;41.30;;;;;;5029461;28;20103;-68
2022/05/16 00:26:36;;;;;;;2.38;2.22;;;25.30;41.30;;;;;;5026422;28;20301;-68
2022/05/16 00:29:03;;;;;;;2.78;2.42;;;25.30;41.30;;;;;;5030116;28;20037;-68
2022/05/16 00:31:30;;;;;;;2.80;2.25;;;25.30;41.30;;;;;;5030539;28;20049;-68
2022/05/16 00:33:58;;;;;;;2.47;2.17;;;25.20;41.30;;;;;;5030872;28;20060;-67
2022/05/16 00:36:25;;;;;;;2.55;2.15;;;25.30;41.40;;;;;;5030651;28;20103;-68
2022/05/16 00:38:54;;;;;;;3.10;2.13;;;25.20;41.30;;;;;;5029099;28;20077;-68
2022/05/16 00:41:21;;;;;;;2.03;1.92;;;25.30;41.40;;;;;;5029247;28;20049;-68
2022/05/16 00:43:58;;;;;;;1.92;1.73;;;25.20;41.30;;;;;;5030215;28;20072;-68
2022/05/16 00:46:30;;;;;;;2.08;1.95;;;25.20;41.40;;;;;;5029814;28;20046;-68
2022/05/16 00:49:01;;;;;;;3.10;1.98;;;25.20;41.40;;;;;;5030274;28;20060;-67
2022/05/16 00:51:34;;;;;;;1.98;1.88;;;25.20;41.40;;;;;;5012932;28;20041;-68
2022/05/16 00:54:09;;;;;;;2.00;1.80;;;25.20;41.40;;;;;;5029043;28;20057;-68
2022/05/16 00:56:37;;;;;;;2.20;2.00;;;25.20;41.40;;;;;;5028326;28;20049;-68
2022/05/16 00:59:05;;;;;;;4.10;2.28;;;25.20;41.50;;;;;;5027622;28;20115;-68
2022/05/16 01:07:07;;;;;;;1.90;1.80;;;25.20;41.50;;;;;;5029310;28;20099;-68
2022/05/16 01:09:34;;;;;;;3.03;2.35;;;25.10;41.50;;;;;;5028843;28;20052;-68
2022/05/16 01:12:02;;;;;;;3.08;2.42;;;25.20;41.50;;;;;;5028359;28;20099;-67
2022/05/16 01:14:51;;;;;;;2.15;1.95;;;25.20;41.60;;;;;;5029778;28;20046;-67
2022/05/16 01:17:19;;;;;;;2.38;2.17;;;25.10;41.50;;;;;;5028507;28;20049;-67
2022/05/16 01:19:47;;;;;;;2.25;2.05;;;25.20;41.60;;;;;;5030085;28;20103;-68
2022/05/16 01:22:30;;;;;;;2.85;2.55;;;25.20;41.60;;;;;;5029338;28;20479;-68
2022/05/16 01:25:06;;;;;;;2.28;2.10;;;25.20;41.50;;;;;;5029365;28;20281;-68
2022/05/16 01:27:43;;;;;;;2.13;1.88;;;25.20;41.50;;;;;;5029026;28;20103;-67
2022/05/16 01:30:11;;;;;;;2.63;2.42;;;25.20;41.50;;;;;;5025882;28;20053;-67
2022/05/16 01:32:39;;;;;;;2.45;2.22;;;25.20;41.50;;;;;;5029275;28;20053;-67
2022/05/16 01:35:07;;;;;;;2.53;2.33;;;25.20;41.50;;;;;;5029568;28;20041;-67
2022/05/16 01:40:22;;;;;;;2.42;2.17;;;25.20;41.50;;;;;;5028893;28;20398;-67
2022/05/16 01:42:49;;;;;;;2.13;1.92;;;25.20;41.50;;;;;;5027758;28;20091;-67
2022/05/16 01:45:16;;;;;;;2.45;2.25;;;25.20;41.50;;;;;;5029721;28;20053;-67
2022/05/16 01:47:44;;;;;;;2.38;2.15;;;25.20;41.50;;;;;;5029465;28;20080;-67
2022/05/16 01:50:11;;;;;;;2.25;2.05;;;25.20;41.50;;;;;;5029064;28;20049;-67
2022/05/16 01:52:38;;;;;;;2.92;2.50;;;25.20;41.60;;;;;;5028875;28;20049;-67
2022/05/16 01:55:07;;;;;;;2.53;2.17;;;25.20;41.60;;;;;;5029400;28;20042;-67
2022/05/16 01:57:34;;;;;;;2.75;2.30;;;25.20;41.60;;;;;;5029567;28;20485;-67
2022/05/16 02:00:03;;;;;;;1.88;1.77;;;25.10;41.50;;;;;;5024227;28;20326;-67
2022/05/16 02:02:30;;;;;;;2.40;1.95;;;25.10;41.50;;;;;;5028537;28;20061;-67
2022/05/16 02:04:57;;;;;;;3.00;2.67;;;25.10;41.60;;;;;;5028821;28;20128;-67
2022/05/16 02:07:24;;;;;;;2.67;2.08;;;25.10;41.60;;;;;;5028736;28;20049;-67
2022/05/16 02:09:51;;;;;;;2.35;1.90;;;25.10;41.60;;;;;;5028649;28;20080;-67
2022/05/16 02:12:18;;;;;;;2.17;1.98;;;25.10;41.60;;;;;;5028811;28;20042;-68
2022/05/16 02:14:46;;;;;;;2.35;2.15;;;25.10;41.60;;;;;;5028969;28;20053;-68
2022/05/16 02:17:13;;;;;;;2.00;1.73;;;25.10;41.70;;;;;;5026783;28;20046;-68
2022/05/16 02:19:40;;;;;;;2.05;1.90;;;25.10;41.70;;;;;;5029515;28;20338;-67
2022/05/16 02:24:55;;;;;;;2.13;2.00;;;25.10;41.70;;;;;;5028316;28;20046;-67
2022/05/16 02:27:22;;;;;;;2.15;1.90;;;25.10;41.70;;;;;;5028710;28;20099;-67
2022/05/16 02:29:49;;;;;;;2.83;2.53;;;25.10;41.70;;;;;;5028745;28;20108;-67
2022/05/16 02:32:16;;;;;;;2.05;1.83;;;25.10;41.70;;;;;;5024351;28;20115;-67
2022/05/16 02:34:44;;;;;;;2.05;1.77;;;25.10;41.70;;;;;;5028449;28;20107;-67
2022/05/16 02:37:12;;;;;;;1.92;1.80;;;25.10;41.80;;;;;;5027212;28;20077;-66
2022/05/16 02:39:44;;;;;;;2.40;2.20;;;25.10;41.70;;;;;;5028075;28;20598;-67
2022/05/16 02:42:14;;;;;;;1.90;1.80;;;25.10;41.80;;;;;;5028387;28;20069;-67
2022/05/16 02:44:42;;;;;;;2.00;1.90;;;25.10;41.70;;;;;;5028408;28;20486;-67
2022/05/16 02:47:15;;;;;;;2.28;2.08;;;25.10;41.80;;;;;;5027191;28;20088;-67
2022/05/16 02:49:42;;;;;;;2.30;2.10;;;25.10;41.80;;;;;;5028096;28;20041;-68
2022/05/16 02:52:10;;;;;;;1.85;1.75;;;25.10;41.80;;;;;;5028389;28;20138;-68
2022/05/16 02:54:43;;;;;;;2.75;2.55;;;25.10;41.80;;;;;;5027365;28;20115;-68
2022/05/16 02:57:11;;;;;;;2.20;1.95;;;25.10;41.80;;;;;;5026865;28;20053;-68
2022/05/16 02:59:39;;;;;;;1.95;1.80;;;25.00;41.80;;;;;;5028355;28;20045;-68
2022/05/16 03:02:08;;;;;;;2.25;2.05;;;25.10;41.80;;;;;;5028486;28;20049;-67
2022/05/16 03:04:37;;;;;;;3.35;2.15;;;25.00;41.80;;;;;;5022397;28;20076;-68
2022/05/16 03:07:05;;;;;;;2.65;2.45;;;25.10;41.80;;;;;;5028167;28;20077;-67
2022/05/16 03:09:33;;;;;;;2.10;1.90;;;25.10;41.80;;;;;;5028220;28;20045;-67
2022/05/16 03:12:01;;;;;;;2.35;2.08;;;25.10;41.80;;;;;;5027875;28;20042;-67
2022/05/16 03:14:28;;;;;;;2.22;2.08;;;25.10;41.80;;;;;;5026737;28;20480;-68
2022/05/16 03:16:56;;;;;;;2.30;2.13;;;25.10;41.80;;;;;;5026484;28;20571;-67
2022/05/16 03:19:23;;;;;;;1.50;1.40;;;25.10;41.80;;;;;;5028761;28;20556;-67
2022/05/16 03:21:50;;;;;;;1.88;1.77;;;25.10;41.80;;;;;;5027803;28;20053;-67
2022/05/16 03:24:18;;;;;;;2.95;2.10;;;25.10;41.70;;;;;;5026019;28;20038;-67
2022/05/16 03:26:45;;;;;;;2.33;2.10;;;25.10;41.70;;;;;;5026218;28;20053;-67
2022/05/16 03:29:13;;;;;;;2.33;1.98;;;25.10;41.70;;;;;;5029444;28;20760;-66
2022/05/16 03:31:42;;;;;;;2.40;2.20;;;25.10;41.70;;;;;;5029563;28;20107;-67
2022/05/16 03:34:11;;;;;;;1.83;1.73;;;25.10;41.70;;;;;;5027514;28;20449;-63
2022/05/16 03:36:38;;;;;;;2.63;1.95;;;25.10;41.70;;;;;;5024498;28;20072;-67
2022/05/16 03:41:54;;;;;;;3.58;1.95;;;25.10;41.70;;;;;;5031249;28;20293;-67
2022/05/16 03:44:21;;;;;;;2.35;2.15;;;25.10;41.70;;;;;;5029595;28;20061;-68
2022/05/16 03:46:49;;;;;;;2.85;2.00;;;25.10;41.70;;;;;;5029664;28;20053;-67
2022/05/16 03:49:17;;;;;;;4.07;2.20;;;25.10;41.70;;;;;;5028106;28;20468;-68
2022/05/16 03:51:44;;;;;;;2.15;1.95;;;25.10;41.70;;;;;;5029032;28;20424;-68
2022/05/16 03:54:11;;;;;;;2.10;1.83;;;25.20;41.70;;;;;;5030573;28;20037;-68
2022/05/16 03:56:39;;;;;;;1.90;1.80;;;25.10;41.60;;;;;;5013175;28;20115;-68
2022/05/16 03:59:06;;;;;;;2.25;2.03;;;25.10;41.60;;;;;;5030461;28;20437;-68
2022/05/16 04:01:33;;;;;;;2.33;2.00;;;25.20;41.70;;;;;;5030460;28;20108;-68
2022/05/16 04:04:00;;;;;;;2.25;2.05;;;25.20;41.70;;;;;;5030394;28;20045;-67
2022/05/16 04:06:28;;;;;;;3.03;1.80;;;25.20;41.60;;;;;;5025733;28;20052;-68
2022/05/16 04:08:55;;;;;;;1.80;1.70;;;25.20;41.60;;;;;;5029491;28;20517;-67
2022/05/16 04:11:22;;;;;;;2.60;2.15;;;25.20;41.50;;;;;;5030826;28;20103;-68
2022/05/16 04:13:49;;;;;;;2.60;2.38;;;25.20;41.50;;;;;;5030985;28;20045;-68
2022/05/16 04:16:16;;;;;;;2.40;1.92;;;25.30;41.50;;;;;;5030450;28;20088;-68
2022/05/16 04:18:44;;;;;;;1.83;1.73;;;25.30;41.50;;;;;;5030447;28;20682;-68
2022/05/16 04:21:12;;;;;;;2.10;1.90;;;25.30;41.50;;;;;;5030808;28;20073;-68
2022/05/16 04:23:40;;;;;;;1.80;1.67;;;25.30;41.50;;;;;;5031182;28;20072;-68
2022/05/16 04:26:07;;;;;;;2.47;1.98;;;25.30;41.40;;;;;;5030551;28;20073;-68
2022/05/16 04:28:34;;;;;;;2.03;1.92;;;25.30;41.30;;;;;;5030452;28;20050;-68
2022/05/16 04:31:01;;;;;;;2.08;1.75;;;25.40;41.40;;;;;;5030838;28;20065;-69
2022/05/16 04:33:28;;;;;;;1.98;1.88;;;25.40;41.30;;;;;;5030955;28;20056;-67
2022/05/16 04:35:56;;;;;;;2.17;1.80;;;25.40;41.20;;;;;;5028979;28;20092;-68
2022/05/16 04:38:23;;;;;;;2.08;1.95;;;25.50;41.20;;;;;;5021507;28;20100;-68
2022/05/16 04:43:37;;;;;;;3.25;2.10;;;25.50;41.10;;;;;;5029215;28;20054;-68
2022/05/16 04:46:06;;;;;;;2.20;2.03;;;25.60;41.10;;;;;;5030039;28;20347;-68
2022/05/16 04:48:34;;;;;;;2.00;1.80;;;25.60;41.10;;;;;;5030328;28;20080;-68
2022/05/16 04:51:01;;;;;;;2.08;1.90;;;25.60;40.90;;;;;;5030175;28;20283;-68
2022/05/16 04:53:29;;;;;;;2.50;2.33;;;25.60;40.90;;;;;;5029408;28;20072;-67
2022/05/16 04:55:56;;;;;;;3.03;2.05;;;25.70;40.90;;;;;;5030556;28;20314;-67
2022/05/16 04:58:23;;;;;;;2.05;1.90;;;25.70;40.80;;;;;;5029545;28;20073;-67
2022/05/16 05:00:51;;;;;;;1.73;1.63;;;25.70;40.70;;;;;;5030258;28;20572;-67
2022/05/16 05:03:18;;;;;;;1.95;1.85;;;25.80;40.70;;;;;;5029902;28;20144;-67
2022/05/16 05:05:45;;;;;;;2.58;2.38;;;25.80;40.60;;;;;;5026056;28;20037;-67
2022/05/16 05:08:13;;;;;;;2.25;2.15;;;25.80;40.60;;;;;;5020723;28;20046;-67
2022/05/16 05:16:22;;;;;;;1.92;1.80;;;25.70;40.70;;;;;;5020564;28;20466;-67
2022/05/16 05:18:50;;;;;;;2.40;2.17;;;25.70;40.90;;;;;;5028048;28;20127;-67
2022/05/16 05:21:17;;;;;;;2.95;2.38;;;25.70;41.10;;;;;;5019174;28;20433;-67
2022/05/16 05:23:56;;;;;;;2.42;2.22;;;25.50;41.20;;;;;;5027560;28;20077;-62
2022/05/16 05:26:23;;;;;;;2.28;1.92;;;25.40;41.50;;;;;;5030981;28;20148;-63
2022/05/16 05:32:55;;;;;;;2.55;2.28;;;25.10;42.30;;;;;;5036071;28;20036;-67
2022/05/16 05:35:23;;;;;;;2.78;2.22;;;24.70;42.80;;;;;;5011616;28;20141;-63
2022/05/16 05:37:51;;;;;;;2.10;2.00;;;24.60;43.30;;;;;;5018775;28;20133;-63
2022/05/16 05:40:18;;;;;;;2.38;2.10;;;24.40;43.70;;;;;;5016750;28;20557;-63
2022/05/16 05:42:46;;;;;;;2.38;2.28;;;24.20;44.00;;;;;;5017260;28;20188;-64
2022/05/16 05:45:13;;;;;;;2.38;2.17;;;24.10;44.40;;;;;;5020433;28;20045;-64
2022/05/16 05:47:41;;;;;;;2.60;2.08;;;23.90;44.70;;;;;;5018984;28;20050;-65
2022/05/16 05:50:08;;;;;;;2.80;2.60;;;23.80;45.10;;;;;;5015913;28;20128;-63
2022/05/16 05:52:36;;;;;;;3.20;2.90;;;23.70;45.40;;;;;;5021859;28;20141;-64
2022/05/16 05:55:04;;;;;;;3.13;2.80;;;23.60;45.80;;;;;;5019584;28;20099;-63
2022/05/16 05:57:31;;;;;;;3.45;3.03;;;23.50;46.10;;;;;;5013285;28;20068;-63
2022/05/16 06:00:00;;;;;;;3.50;3.20;;;23.30;46.40;;;;;;5013876;28;20041;-62
2022/05/16 06:02:27;;;;;;;3.80;3.50;;;23.20;46.80;;;;;;5022507;28;20145;-65
2022/05/16 06:04:54;;;;;;;11.80;3.65;;;23.20;47.00;;;;;;5019691;28;20136;-62
2022/05/16 06:07:24;;;;;;;3.40;2.88;;;23.10;47.30;;;;;;5020243;28;20619;-64
2022/05/16 06:09:51;;;;;;;3.83;3.45;;;23.00;47.40;;;;;;5023815;28;20042;-63
2022/05/16 06:12:18;;;;;;;4.07;3.25;;;22.90;47.60;;;;;;5018355;28;20077;-64
2022/05/16 06:14:45;;;;;;;3.70;3.10;;;22.80;47.80;;;;;;5020742;28;20166;-64
2022/05/16 06:17:13;;;;;;;6.30;3.40;;;22.80;47.90;;;;;;5023864;28;20124;-64
2022/05/16 06:19:40;;;;;;;3.03;2.83;;;22.70;48.10;;;;;;5015814;28;20507;-64
2022/05/16 06:22:08;;;;;;;3.28;2.97;;;22.60;48.20;;;;;;5020451;28;20081;-65
2022/05/16 06:27:22;;;;;;;3.90;3.50;;;22.50;48.50;;;;;;5020236;28;20083;-64
2022/05/16 06:29:50;;;;;;;3.70;3.40;;;22.40;48.90;;;;;;5018163;28;20293;-64
2022/05/16 06:32:17;;;;;;;4.70;3.35;;;22.40;48.90;;;;;;5018566;28;20107;-64
2022/05/16 06:34:44;;;;;;;3.70;3.40;;;22.30;49.10;;;;;;5023292;28;20152;-63
2022/05/16 06:37:11;;;;;;;3.65;3.35;;;22.30;49.30;;;;;;5022253;28;20045;-62
2022/05/16 06:39:38;;;;;;;3.60;3.30;;;22.20;49.40;;;;;;5021910;28;20083;-64
2022/05/16 06:42:06;;;;;;;3.65;3.35;;;22.20;49.60;;;;;;5048061;28;20049;-65
2022/05/16 06:44:33;;;;;;;3.80;3.15;;;22.20;49.70;;;;;;5020194;28;20481;-64
2022/05/16 06:47:01;;;;;;;3.45;3.22;;;22.10;49.80;;;;;;5020297;28;20041;-64
2022/05/16 06:49:28;;;;;;;3.60;3.30;;;22.00;50.00;;;;;;5022432;28;20049;-66
2022/05/16 06:51:55;;;;;;;3.85;3.55;;;22.00;50.20;;;;;;5023785;28;20469;-63
2022/05/16 06:54:24;;;;;;;6.00;3.97;;;22.00;50.30;;;;;;5019968;28;20452;-63
2022/05/16 06:56:51;;;;;;;5.50;3.55;;;22.00;50.40;;;;;;5024442;28;20394;-63
2022/05/16 06:59:19;;;;;;;3.67;3.38;;;21.90;50.50;;;;;;5017938;28;20080;-63
2022/05/16 07:01:46;;;;;;;5.50;3.55;;;21.90;50.60;;;;;;5043200;28;20053;-63
2022/05/16 07:04:13;;;;;;;5.03;3.10;;;21.90;50.60;;;;;;5028193;28;20037;-62
2022/05/16 07:06:41;;;;;;;4.63;3.42;;;21.90;50.80;;;;;;5020099;28;20048;-63
2022/05/16 07:09:08;;;;;;;3.42;3.20;;;21.90;50.80;;;;;;5018148;28;20404;-63
2022/05/16 07:11:36;;;;;;;3.67;3.38;;;21.90;50.90;;;;;;5017426;28;20077;-62
2022/05/16 07:14:03;;;;;;;6.35;3.80;;;21.90;50.90;;;;;;5024819;28;20111;-62
2022/05/16 07:16:30;;;;;;;6.32;3.50;;;21.90;50.90;;;;;;5017581;28;20053;-62
2022/05/16 07:18:58;;;;;;;5.57;3.28;;;21.90;51.00;;;;;;5018364;28;20516;-63
2022/05/16 07:21:25;;;;;;;3.65;3.28;;;22.00;51.30;;;;;;5020002;28;20053;-64
2022/05/16 07:23:53;;;;;;;4.28;3.47;;;21.90;51.90;;;;;;5022979;28;20495;-63
2022/05/16 07:29:07;;;;;;;3.80;3.05;;;21.90;52.70;;;;;;5021384;28;20100;-64
2022/05/16 07:31:36;;;;;;;3.33;3.05;;;21.90;52.90;;;;;;5020478;28;20038;-66
2022/05/16 07:34:04;;;;;;;3.40;3.05;;;21.80;52.90;;;;;;5021697;28;20044;-66
2022/05/16 07:36:31;;;;;;;3.30;3.05;;;21.90;52.90;;;;;;5022431;28;20099;-64
2022/05/16 07:38:58;;;;;;;3.42;3.10;;;21.90;53.10;;;;;;5021323;28;20063;-64
2022/05/16 07:41:28;;;;;;;5.20;3.30;;;21.90;52.90;;;;;;5022062;28;20049;-65
2022/05/16 07:43:55;;;;;;;3.58;3.25;;;21.90;52.60;;;;;;5022206;28;20048;-67
2022/05/16 07:46:22;;;;;;;4.78;3.45;;;21.90;52.80;;;;;;5019085;28;20099;-67
2022/05/16 07:48:50;;;;;;;4.55;3.35;;;21.90;53.00;;;;;;5016676;28;20077;-63
2022/05/16 07:51:17;;;;;;;3.17;2.97;;;21.90;53.10;;;;;;5016577;28;20053;-63
2022/05/16 07:53:45;;;;;;;3.65;3.35;;;21.90;53.10;;;;;;5021471;28;20593;-65
2022/05/16 07:56:12;;;;;;;4.85;3.78;;;21.90;53.20;;;;;;5021523;28;20107;-66
2022/05/16 07:58:39;;;;;;;3.40;3.10;;;21.90;53.20;;;;;;5017793;28;20473;-70
2022/05/16 08:01:06;;;;;;;4.28;3.20;;;21.90;53.30;;;;;;5022789;28;20049;-66
2022/05/16 08:03:33;;;;;;;4.10;3.70;;;21.90;53.60;;;;;;5021085;28;20060;-68
2022/05/16 08:06:01;;;;;;;5.40;4.20;;;21.90;53.70;;;;;;5017611;28;20563;-64
2022/05/16 08:11:16;;;;;;;6.18;3.65;;;21.90;53.30;;;;;;5021664;28;20117;-64
2022/05/16 08:13:44;;;;;;;6.32;3.78;;;21.90;53.20;;;;;;5026424;28;20378;-66
2022/05/16 08:16:12;;;;;;;3.95;3.38;;;22.00;53.20;;;;;;5025093;28;20111;-62
2022/05/16 08:18:41;;;;;;;4.00;3.70;;;22.00;53.40;;;;;;5021424;28;20049;-63
2022/05/16 08:21:10;;;;;;;3.80;3.50;;;22.00;53.50;;;;;;5018515;28;20076;-62
2022/05/16 08:23:39;;;;;;;4.30;3.90;;;22.00;53.50;;;;;;5026228;28;20057;-62
2022/05/16 08:26:06;;;;;;;4.88;3.70;;;22.00;53.20;;;;;;5023951;28;20050;-62
2022/05/16 08:28:34;;;;;;;5.38;3.88;;;22.00;53.00;;;;;;5021904;28;20493;-64
2022/05/16 08:31:01;;;;;;;3.45;3.15;;;22.10;53.00;;;;;;5019668;28;20058;-62
2022/05/16 08:33:29;;;;;;;4.03;3.58;;;22.10;52.80;;;;;;5027370;28;20095;-61
2022/05/16 08:41:46;;;;;;;5.18;3.35;;;22.10;52.60;;;;;;5022603;28;20497;-61
2022/05/16 08:44:38;;;;;;;3.45;3.15;;;22.20;52.60;;;;;;5017966;28;20142;-60
2022/05/16 08:47:34;;;;;;;3.70;3.40;;;22.20;52.60;;;;;;5020379;28;20053;-60
2022/05/16 08:50:09;;;;;;;3.65;3.13;;;22.20;52.60;;;;;;5021824;28;20041;-60
2022/05/16 08:52:54;;;;;;;6.82;3.70;;;22.20;52.60;;;;;;5022335;28;20045;-60
2022/05/16 08:55:32;;;;;;;3.60;2.67;;;22.20;52.50;;;;;;5025843;28;20490;-60
2022/05/16 08:58:30;;;;;;;3.63;3.25;;;22.20;52.40;;;;;;5021157;28;20144;-60
2022/05/16 09:01:02;;;;;;;4.72;3.70;;;22.30;52.40;;;;;;5021550;28;20050;-61
2022/05/16 09:04:04;;;;;;;3.50;3.20;;;22.30;52.90;;;;;;5018716;28;20239;-60
2022/05/16 09:06:45;;;;;;;3.25;2.95;;;22.30;52.30;;;;;;5017038;28;20449;-60
2022/05/16 09:09:16;;;;;;;3.47;3.17;;;22.30;52.60;;;;;;5021920;28;20041;-59
2022/05/16 09:12:17;;;;;;;3.95;3.58;;;22.30;52.60;;;;;;5023631;28;20049;-60
2022/05/16 09:15:18;;;;;;;3.35;3.08;;;22.40;52.70;;;;;;5021482;28;20046;-61
2022/05/16 09:18:10;;;;;;;3.60;3.22;;;22.40;52.70;;;;;;5024972;28;20060;-61
2022/05/16 09:20:59;;;;;;;5.30;3.88;;;22.40;52.60;;;;;;5022270;28;20719;-64
2022/05/16 09:23:53;;;;;;;5.90;3.30;;;22.50;52.50;;;;;;5012309;28;20110;-62
2022/05/16 09:26:54;;;;;;;3.95;3.65;;;22.50;52.30;;;;;;5019566;28;20046;-61
2022/05/16 09:29:37;;;;;;;4.00;3.30;;;22.60;52.10;;;;;;5015422;28;20045;-60
2022/05/16 09:32:16;;;;;;;4.55;3.22;;;22.60;51.70;;;;;;5012720;28;20042;-60
2022/05/16 09:34:43;;;;;;;3.63;3.33;;;22.70;51.20;;;;;;5015614;28;20489;-60
2022/05/16 09:37:10;;;;;;;3.28;2.85;;;22.70;51.40;;;;;;5017924;28;20053;-62
2022/05/16 09:39:44;;;;;;;4.32;2.90;;;22.70;51.20;;;;;;5019928;28;20053;-61
2022/05/16 09:42:23;;;;;;;4.05;3.00;;;22.70;50.80;;;;;;5025708;28;20496;-63
2022/05/16 09:45:03;;;;;;;3.08;2.78;;;22.70;50.70;;;;;;5019908;28;20127;-62
2022/05/16 09:47:40;;;;;;;;;;;22.70;50.60;;;;;;5020670;28;20072;-63
2022/05/16 09:50:24;;;;;;;3.50;2.80;;;22.80;50.60;;;;;;5020356;28;20336;-60
2022/05/16 09:53:14;;;;;;;4.03;2.70;;;22.80;50.40;;;;;;5019351;28;20045;-61
2022/05/16 09:55:53;;;;;;;2.90;2.70;;;22.90;50.40;;;;;;5016370;28;20535;-62
2022/05/16 09:58:24;;;;;;;5.95;2.72;;;22.90;50.30;;;;;;5017081;28;20570;-61
2022/05/16 10:01:00;;;;;;;3.28;2.97;;;22.90;50.20;;;;;;5018581;28;20448;-63
2022/05/16 10:03:32;;;;;;;3.13;2.78;;;22.90;49.90;;;;;;5018741;28;20068;-63
2022/05/16 10:06:03;;;;;;;3.47;2.85;;;23.00;49.70;;;;;;5014199;28;20037;-64
2022/05/16 10:08:45;;;;;;;3.22;2.90;;;23.00;49.50;;;;;;5018256;28;20069;-61
2022/05/16 10:11:20;;;;;;;3.67;2.97;;;23.00;49.30;;;;;;5015393;28;20505;-63
2022/05/16 10:13:49;;;;;;;6.60;3.30;;;23.00;49.30;;;;;;5016756;28;20054;-63
2022/05/16 10:16:18;;;;;;;3.20;3.00;;;23.00;49.10;;;;;;5015549;28;20079;-61
2022/05/16 10:18:50;;;;;;;3.42;2.45;;;23.00;49.00;;;;;;5016788;28;20144;-62
2022/05/16 10:21:35;;;;;;;3.63;2.60;;;23.10;48.90;;;;;;5018471;28;20427;-62
2022/05/16 10:24:05;;;;;;;3.22;2.92;;;23.10;48.70;;;;;;5020235;28;20559;-64
2022/05/16 10:26:38;;;;;;;6.25;2.42;;;23.10;49.10;;;;;;5019173;28;20076;-62
2022/05/16 10:29:12;;;;;;;3.78;2.95;;;23.10;48.40;;;;;;5019284;28;20050;-62
2022/05/16 10:35:04;;;;;;;3.28;2.90;;;23.20;48.10;;;;;;5019929;28;20061;-63
2022/05/16 10:37:32;;;;;;;;;;;23.20;47.90;;;;;;5020357;28;20045;-62
2022/05/16 10:40:11;;;;;;;4.50;2.67;;;23.10;47.70;;;;;;5019253;28;19935;-62
2022/05/16 10:42:48;;;;;;;3.25;2.30;;;23.20;47.60;;;;;;5018684;28;20053;-62
2022/05/16 10:45:19;;;;;;;2.78;2.58;;;23.10;47.60;;;;;;5022691;28;20049;-62
2022/05/16 10:48:24;;;;;;;3.03;2.42;;;23.10;47.50;;;;;;5024944;28;20056;-63
2022/05/16 10:51:14;;;;;;;2.75;2.45;;;23.10;48.00;;;;;;5023900;28;20053;-61
2022/05/16 10:53:55;;;;;;;3.42;3.13;;;23.10;47.40;;;;;;5017116;28;20057;-62
2022/05/16 10:56:52;;;;;;;2.75;2.55;;;23.10;47.50;;;;;;5015666;28;20053;-61
2022/05/16 10:59:58;;;;;;;3.00;2.45;;;23.10;47.50;;;;;;5002932;28;20045;-62
2022/05/16 11:02:56;;;;;;;3.00;2.70;;;23.10;47.40;;;;;;5023488;28;20172;-61
2022/05/16 11:05:42;;;;;;;2.42;2.30;;;23.10;47.50;;;;;;5018188;28;20198;-62
2022/05/16 11:08:49;;;;;;;2.70;2.50;;;23.20;47.40;;;;;;5016179;28;20053;-62
2022/05/16 11:11:47;;;;;;;2.22;2.13;;;23.20;47.30;;;;;;5020816;28;20508;-64
2022/05/16 11:14:38;;;;;;;2.78;2.58;;;23.20;47.20;;;;;;5016603;28;20100;-63
2022/05/16 11:17:23;;;;;;;4.40;2.50;;;23.20;47.10;;;;;;5020695;28;20046;-62
2022/05/16 11:20:20;;;;;;;3.67;2.28;;;23.20;47.00;;;;;;5020670;28;20100;-63
2022/05/16 11:23:06;;;;;;;4.30;2.72;;;23.30;47.00;;;;;;5024443;28;20398;-61
2022/05/16 11:25:58;;;;;;;2.60;2.40;;;23.20;47.60;;;;;;5016381;28;20509;-62
2022/05/16 11:29:16;;;;;;;2.63;2.42;;;23.20;47.90;;;;;;5016952;28;20099;-60
2022/05/16 11:31:39;;;;;;;2.05;1.95;;;23.20;47.50;;;;;;5020771;28;20095;-62
2022/05/16 11:34:17;;;;;;;2.55;2.35;;;23.20;47.90;;;;;;5026563;28;20083;-61
2022/05/16 11:36:57;;;;;;;3.30;2.40;;;23.20;48.10;;;;;;5013741;28;20515;-62
2022/05/16 11:39:52;;;;;;;3.80;2.55;;;23.20;48.50;;;;;;5021359;28;20085;-61
2022/05/16 11:42:34;;;;;;;3.50;2.72;;;23.20;48.70;;;;;;5016417;28;20041;-61
2022/05/16 11:45:28;;;;;;;2.78;2.58;;;23.20;48.90;;;;;;5020044;28;20861;-61
2022/05/16 11:48:20;;;;;;;2.50;2.35;;;23.20;49.00;;;;;;5017091;28;20099;-61
2022/05/16 11:51:19;;;;;;;2.40;2.20;;;23.20;49.10;;;;;;5026148;28;20045;-62
2022/05/16 11:53:50;;;;;;;2.38;2.17;;;23.20;49.30;;;;;;5025363;28;20128;-61
2022/05/16 12:02:41;;;;;;;2.22;2.10;;;23.20;49.20;;;;;;5017232;28;20571;-61
2022/05/16 12:05:31;;;;;;;3.05;2.30;;;23.30;49.40;;;;;;5024809;28;20543;-61
2022/05/16 12:08:31;;;;;;;3.13;2.07;;;23.30;49.30;;;;;;5019446;28;20115;-62
2022/05/16 12:11:13;;;;;;;5.95;2.70;;;23.30;49.30;;;;;;5022256;28;20799;-61
2022/05/16 12:14:03;;;;;;;2.30;2.10;;;23.30;49.20;;;;;;5020507;28;20485;-61
2022/05/16 12:16:42;;;;;;;2.72;2.53;;;23.40;48.70;;;;;;5017706;28;20065;-61
2022/05/16 12:19:16;;;;;;;2.33;2.23;;;23.40;48.30;;;;;;5023353;28;20132;-61
2022/05/16 12:21:55;;;;;;;2.45;2.33;;;23.50;47.90;;;;;;5021205;28;20049;-61
2022/05/16 12:25:01;;;;;;;2.15;2.05;;;23.50;47.50;;;;;;5019204;28;20493;-62
2022/05/16 12:27:34;;;;;;;2.53;2.33;;;23.50;47.30;;;;;;5018455;28;20088;-61
2022/05/16 12:30:06;;;;;;;2.83;2.33;;;23.50;47.20;;;;;;5019318;28;20046;-62
2022/05/16 12:32:48;;;;;;;2.85;2.53;;;23.60;47.40;;;;;;5017137;28;20065;-61
2022/05/16 12:35:35;;;;;;;2.50;2.38;;;23.60;48.00;;;;;;5018466;28;20049;-61
2022/05/16 12:38:03;;;;;;;2.33;2.10;;;23.60;47.10;;;;;;5017548;28;20045;-58
2022/05/16 12:41:07;;;;;;;2.92;2.67;;;23.70;47.40;;;;;;5024482;28;20042;-60
2022/05/16 12:44:08;;;;;;;3.80;2.65;;;23.70;47.40;;;;;;5023548;28;20140;-64
2022/05/16 12:47:00;;;;;;;2.53;2.28;;;23.70;47.60;;;;;;5020070;28;20481;-66
2022/05/16 12:50:08;;;;;;;2.42;2.30;;;23.70;47.50;;;;;;5023430;28;20136;-63
2022/05/16 12:53:15;;;;;;;2.40;2.30;;;23.80;47.60;;;;;;5019606;28;20041;-63
2022/05/16 12:56:07;;;;;;;2.28;2.17;;;23.80;47.50;;;;;;5024130;28;20087;-62
2022/05/16 12:59:05;;;;;;;2.55;2.40;;;23.80;47.60;;;;;;5022516;28;20054;-62
2022/05/16 13:01:42;;;;;;;2.80;2.60;;;23.80;48.00;;;;;;5022479;28;20130;-63
2022/05/16 13:04:49;;;;;;;2.63;2.35;;;23.80;47.50;;;;;;5016010;28;20144;-64
2022/05/16 13:07:42;;;;;;;2.17;2.00;;;23.80;47.50;;;;;;5017062;28;20049;-61
2022/05/16 13:10:34;;;;;;;2.53;2.33;;;23.80;47.40;;;;;;5018192;28;20135;-61
2022/05/16 13:13:22;;;;;;;2.28;1.98;;;23.80;47.30;;;;;;5021156;28;20100;-61
2022/05/16 13:16:03;;;;;;;2.22;2.03;;;23.90;48.10;;;;;;5023125;28;20062;-63
2022/05/16 13:18:34;;;;;;;2.28;2.10;;;23.80;47.40;;;;;;5024449;28;20065;-64
2022/05/16 13:21:05;;;;;;;1.90;1.80;;;23.90;47.20;;;;;;5023267;28;20074;-63
2022/05/16 13:23:32;;;;;;;2.20;2.10;;;23.90;47.10;;;;;;5020643;28;20108;-63
2022/05/16 13:31:48;;;;;;;2.40;2.20;;;23.90;47.00;;;;;;5023994;28;20041;-65
2022/05/16 13:34:35;;;;;;;2.30;2.13;;;24.00;46.80;;;;;;5020818;28;20574;-65
2022/05/16 13:37:07;;;;;;;1.77;1.67;;;24.00;46.90;;;;;;5016104;28;20041;-63
2022/05/16 13:39:39;;;;;;;2.92;2.22;;;24.10;46.80;;;;;;5020612;28;20033;-66
2022/05/16 13:42:07;;;;;;;2.42;2.33;;;24.10;46.70;;;;;;5023117;28;20122;-64
2022/05/16 13:44:40;;;;;;;2.03;1.92;;;24.10;46.60;;;;;;5020780;28;20041;-64
2022/05/16 13:47:12;;;;;;;1.65;1.55;;;24.20;46.60;;;;;;5016218;28;20485;-61
2022/05/16 13:49:40;;;;;;;1.80;1.70;;;24.20;46.50;;;;;;5021767;28;20061;-61
2022/05/16 13:52:29;;;;;;;1.95;1.80;;;24.20;46.40;;;;;;5021660;28;20045;-61
2022/05/16 13:54:59;;;;;;;2.00;1.90;;;24.30;46.30;;;;;;5020245;28;20061;-58
2022/05/16 13:57:27;;;;;;;3.22;2.25;;;24.30;46.10;;;;;;5017836;28;20045;-58
2022/05/16 14:00:21;;;;;;;2.05;1.95;;;24.30;46.10;;;;;;5017541;28;20100;-59
2022/05/16 14:02:54;;;;;;;5.93;2.08;;;24.40;46.20;;;;;;5015823;28;20045;-61
2022/05/16 14:05:28;;;;;;;2.15;2.00;;;24.40;46.50;;;;;;5026664;28;20063;-60
2022/05/16 14:08:17;;;;;;;1.90;1.80;;;24.40;46.00;;;;;;5017554;28;20041;-61
2022/05/16 14:10:45;;;;;;;2.13;2.03;;;24.50;46.00;;;;;;5020883;28;20108;-61
2022/05/16 14:13:18;;;;;;;2.00;1.90;;;24.50;46.00;;;;;;5022010;28;20083;-60
2022/05/16 14:15:58;;;;;;;2.13;2.03;;;24.50;46.10;;;;;;5022699;28;20041;-66
2022/05/16 14:18:35;;;;;;;2.25;2.03;;;24.50;46.10;;;;;;5021639;28;20049;-61